Time;durP1;ratioP1;P1;durP2;ratioP2;P2;SDS_P1;SDS_P2;PMS_P1;PMS_P2;Temp;Humidity;BMP_temperature;BMP_pressure;BME280_temperature;BME280_humidity;BME280_pressure;Samples;Min_cycle;Max_cycle;Signal;HPM_P1;HPM_P2
2022/06/16 00:00:08;;;;;;;5.88;2.45;;;;;;;;;;5101055;27;20503;-74
2022/06/16 00:02:41;;;;;;;5.40;2.25;;;;;;;;;;5100953;28;20909;-73
2022/06/16 00:05:09;;;;;;;5.57;2.72;;;;;;;;;;5105161;28;20035;-74
2022/06/16 00:07:36;;;;;;;7.20;2.28;;;;;;;;;;5100806;27;20019;-73
2022/06/16 00:10:02;;;;;;;4.93;2.28;;;;;;;;;;5099333;27;20024;-74
2022/06/16 00:12:28;;;;;;;4.93;2.70;;;;;;;;;;5102731;28;20028;-74
2022/06/16 00:14:53;;;;;;;4.10;2.58;;;;;;;;;;5104856;28;20039;-74
2022/06/16 00:17:19;;;;;;;4.50;2.33;;;;;;;;;;5101890;28;20028;-74
2022/06/16 00:19:44;;;;;;;4.18;2.60;;;;;;;;;;5100326;28;20411;-71
2022/06/16 00:22:09;;;;;;;4.47;2.70;;;;;;;;;;5099505;28;20031;-74
2022/06/16 00:24:35;;;;;;;4.28;2.22;;;;;;;;;;5100635;28;20031;-73
2022/06/16 00:27:01;;;;;;;3.97;2.63;;;;;;;;;;5101810;28;20028;-74
2022/06/16 00:29:27;;;;;;;3.78;2.60;;;;;;;;;;5098627;28;20472;-72
2022/06/16 00:31:53;;;;;;;7.75;2.67;;;;;;;;;;5103711;28;20032;-72
2022/06/16 00:34:18;;;;;;;3.92;2.40;;;;;;;;;;5097645;28;20019;-75
2022/06/16 00:36:43;;;;;;;5.03;2.60;;;;;;;;;;5099698;28;20081;-74
2022/06/16 00:39:09;;;;;;;4.78;2.60;;;;;;;;;;5102931;28;20443;-74
2022/06/16 00:41:34;;;;;;;5.32;2.85;;;;;;;;;;5102657;28;20152;-71
2022/06/16 00:44:01;;;;;;;6.22;2.72;;;;;;;;;;5102103;28;20031;-74
2022/06/16 00:46:29;;;;;;;3.80;2.60;;;;;;;;;;5101456;28;20511;-72
2022/06/16 00:49:05;;;;;;;3.40;2.20;;;;;;;;;;5098962;28;20028;-71
2022/06/16 00:51:35;;;;;;;4.32;2.67;;;;;;;;;;5097857;28;20524;-72
2022/06/16 00:54:24;;;;;;;5.72;2.90;;;;;;;;;;5097223;28;20032;-75
2022/06/16 00:56:51;;;;;;;3.75;2.40;;;;;;;;;;5100920;28;20518;-73
2022/06/16 00:59:19;;;;;;;4.55;2.67;;;;;;;;;;5102446;28;20027;-74
2022/06/16 01:01:45;;;;;;;4.43;2.35;;;;;;;;;;5099134;28;20035;-74
2022/06/16 01:06:57;;;;;;;3.78;2.53;;;;;;;;;;5103555;27;20109;-75
2022/06/16 01:09:25;;;;;;;4.70;2.50;;;;;;;;;;5104564;27;20024;-74
2022/06/16 01:14:53;;;;;;;4.35;2.63;;;;;;;;;;5100485;28;20034;-74
2022/06/16 01:17:50;;;;;;;4.32;2.75;;;;;;;;;;5099658;27;20046;-74
2022/06/16 01:20:37;;;;;;;4.53;2.53;;;;;;;;;;5102701;27;20054;-73
2022/06/16 01:23:26;;;;;;;4.45;2.85;;;;;;;;;;5100431;27;20027;-71
2022/06/16 01:26:06;;;;;;;5.15;2.88;;;;;;;;;;5101581;27;20068;-75
2022/06/16 01:28:52;;;;;;;4.30;2.53;;;;;;;;;;5103411;28;20394;-74
2022/06/16 01:31:26;;;;;;;4.80;2.90;;;;;;;;;;5100340;27;20020;-74
2022/06/16 01:34:06;;;;;;;5.82;3.00;;;;;;;;;;5099479;28;20031;-75
2022/06/16 01:36:41;;;;;;;4.82;2.95;;;;;;;;;;5096660;27;20050;-75
2022/06/16 01:39:18;;;;;;;5.05;2.80;;;;;;;;;;5104857;28;20028;-75
2022/06/16 01:41:46;;;;;;;4.65;2.88;;;;;;;;;;5099763;27;20104;-74
2022/06/16 01:44:18;;;;;;;4.72;2.78;;;;;;;;;;5103797;27;20031;-75
2022/06/16 01:46:45;;;;;;;4.63;3.08;;;;;;;;;;5104355;27;20024;-75
2022/06/16 01:49:19;;;;;;;5.78;2.55;;;;;;;;;;5103163;27;20028;-72
2022/06/16 01:51:52;;;;;;;4.53;2.80;;;;;;;;;;5103267;28;20019;-73
2022/06/16 01:54:29;;;;;;;4.07;2.63;;;;;;;;;;5099379;28;20032;-74
2022/06/16 01:57:03;;;;;;;4.22;2.80;;;;;;;;;;5105454;27;20027;-72
2022/06/16 01:59:37;;;;;;;5.35;3.00;;;;;;;;;;5112566;27;20399;-71
2022/06/16 02:02:08;;;;;;;4.45;2.90;;;;;;;;;;5102009;27;20015;-75
2022/06/16 02:04:53;;;;;;;5.30;2.90;;;;;;;;;;5105282;28;20028;-74
2022/06/16 02:07:22;;;;;;;4.75;2.72;;;;;;;;;;5104701;28;20056;-73
2022/06/16 02:09:51;;;;;;;5.93;3.05;;;;;;;;;;5109070;28;20553;-74
2022/06/16 02:15:28;;;;;;;4.75;3.03;;;;;;;;;;5106682;27;20046;-73
2022/06/16 02:17:55;;;;;;;5.00;3.25;;;;;;;;;;5103093;27;20035;-71
2022/06/16 02:20:27;;;;;;;3.90;2.67;;;;;;;;;;5105715;27;20168;-75
2022/06/16 02:22:52;;;;;;;5.40;3.17;;;;;;;;;;5103348;27;20024;-74
2022/06/16 02:25:18;;;;;;;5.75;2.80;;;;;;;;;;5102769;28;20380;-74
2022/06/16 02:27:43;;;;;;;6.90;2.88;;;;;;;;;;5102979;27;22349;-72
2022/06/16 02:30:10;;;;;;;4.35;3.17;;;;;;;;;;5102012;27;20539;-75
2022/06/16 02:32:54;;;;;;;7.20;3.30;;;;;;;;;;5099471;27;20035;-75
2022/06/16 02:35:37;;;;;;;5.82;3.20;;;;;;;;;;5113540;27;20055;-73
2022/06/16 02:38:08;;;;;;;6.18;3.25;;;;;;;;;;5098634;27;20032;-74
2022/06/16 02:41:11;;;;;;;5.30;3.25;;;;;;;;;;5099350;27;20040;-73
2022/06/16 02:43:46;;;;;;;3.85;2.70;;;;;;;;;;5101878;28;20015;-75
2022/06/16 02:46:24;;;;;;;4.15;2.83;;;;;;;;;;5100803;27;20502;-74
2022/06/16 02:49:03;;;;;;;4.97;2.88;;;;;;;;;;5095467;27;21813;-74
2022/06/16 02:51:42;;;;;;;4.35;3.20;;;;;;;;;;5101891;27;20016;-71
2022/06/16 02:54:20;;;;;;;4.97;3.40;;;;;;;;;;5109222;27;20032;-73
2022/06/16 02:56:57;;;;;;;6.13;3.35;;;;;;;;;;5103266;28;20531;-73
2022/06/16 02:59:47;;;;;;;5.22;3.72;;;;;;;;;;5103830;27;20123;-75
2022/06/16 03:02:17;;;;;;;6.22;3.45;;;;;;;;;;5104717;28;20060;-72
2022/06/16 03:04:47;;;;;;;5.88;3.50;;;;;;;;;;5101785;28;20024;-75
2022/06/16 03:07:14;;;;;;;4.88;3.25;;;;;;;;;;5104332;27;20019;-75
2022/06/16 03:09:40;;;;;;;5.60;3.17;;;;;;;;;;5100457;27;20039;-72
2022/06/16 03:12:07;;;;;;;4.63;3.20;;;;;;;;;;5102645;27;20124;-71
2022/06/16 03:14:32;;;;;;;5.15;3.13;;;;;;;;;;5093183;28;20023;-73
2022/06/16 03:16:58;;;;;;;5.10;3.03;;;;;;;;;;5105384;28;20497;-74
2022/06/16 03:19:23;;;;;;;4.78;3.35;;;;;;;;;;5098948;27;20040;-73
2022/06/16 03:21:49;;;;;;;7.30;3.55;;;;;;;;;;5101740;27;20475;-73
2022/06/16 03:24:15;;;;;;;5.57;3.28;;;;;;;;;;5100023;27;20046;-74
2022/06/16 03:26:41;;;;;;;5.13;3.47;;;;;;;;;;5096587;27;20098;-74
2022/06/16 03:29:07;;;;;;;4.68;3.30;;;;;;;;;;5097545;27;20023;-73
2022/06/16 03:31:32;;;;;;;5.18;3.45;;;;;;;;;;5100928;27;20484;-74
2022/06/16 03:33:58;;;;;;;6.75;3.42;;;;;;;;;;5097880;27;20028;-74
2022/06/16 03:36:23;;;;;;;6.05;3.70;;;;;;;;;;5106324;27;20062;-73
2022/06/16 03:38:48;;;;;;;4.50;3.58;;;;;;;;;;5101729;27;20431;-72
2022/06/16 03:41:14;;;;;;;4.60;3.08;;;;;;;;;;5096320;27;20134;-74
2022/06/16 03:43:40;;;;;;;4.93;3.70;;;;;;;;;;5096357;28;20053;-71
2022/06/16 03:46:06;;;;;;;5.63;3.30;;;;;;;;;;5101205;28;20023;-74
2022/06/16 03:48:32;;;;;;;7.13;2.92;;;;;;;;;;5106046;28;20055;-74
2022/06/16 03:50:57;;;;;;;5.57;3.60;;;;;;;;;;5104381;28;20052;-72
2022/06/16 03:53:23;;;;;;;5.25;3.55;;;;;;;;;;5104986;28;20384;-75
2022/06/16 03:55:48;;;;;;;4.55;3.22;;;;;;;;;;5104811;28;20044;-74
2022/06/16 03:58:14;;;;;;;4.15;2.88;;;;;;;;;;5097144;27;20027;-73
2022/06/16 04:00:41;;;;;;;5.38;3.58;;;;;;;;;;5100931;27;21010;-72
2022/06/16 04:05:52;;;;;;;4.93;3.25;;;;;;;;;;5099425;28;20391;-74
2022/06/16 04:08:19;;;;;;;4.68;3.20;;;;;;;;;;5104651;27;20030;-73
2022/06/16 04:10:46;;;;;;;4.57;3.20;;;;;;;;;;5098459;27;20020;-72
2022/06/16 04:13:11;;;;;;;4.82;3.03;;;;;;;;;;5100806;28;20023;-74
2022/06/16 04:15:37;;;;;;;4.75;3.33;;;;;;;;;;5097914;27;20034;-73
2022/06/16 04:18:02;;;;;;;5.22;3.35;;;;;;;;;;5102282;28;20024;-75
2022/06/16 04:20:28;;;;;;;6.97;3.50;;;;;;;;;;5104657;27;20019;-71
2022/06/16 04:22:53;;;;;;;4.57;3.20;;;;;;;;;;5099977;28;20035;-72
2022/06/16 04:25:22;;;;;;;5.82;2.92;;;;;;;;;;5098158;28;20039;-75
2022/06/16 04:27:48;;;;;;;5.10;3.30;;;;;;;;;;5101959;27;20063;-73
2022/06/16 04:30:15;;;;;;;5.45;3.40;;;;;;;;;;5096424;28;20486;-75
2022/06/16 04:32:40;;;;;;;6.78;3.50;;;;;;;;;;5098855;28;20426;-74
2022/06/16 04:35:06;;;;;;;4.97;3.40;;;;;;;;;;5101826;28;20036;-75
2022/06/16 04:37:32;;;;;;;4.70;2.75;;;;;;;;;;5097078;28;20048;-72
2022/06/16 04:39:58;;;;;;;5.20;3.47;;;;;;;;;;5097971;28;20039;-75
2022/06/16 04:42:24;;;;;;;5.68;3.38;;;;;;;;;;5103433;27;20032;-74
2022/06/16 04:44:49;;;;;;;4.85;3.38;;;;;;;;;;5099023;28;20036;-74
2022/06/16 04:47:14;;;;;;;4.78;3.05;;;;;;;;;;5103965;28;20020;-74
2022/06/16 04:49:40;;;;;;;7.00;3.67;;;;;;;;;;5107042;27;20112;-72
2022/06/16 04:52:06;;;;;;;5.30;3.17;;;;;;;;;;5103176;27;20038;-75
2022/06/16 04:54:31;;;;;;;6.05;3.17;;;;;;;;;;5109363;28;20039;-75
2022/06/16 04:56:57;;;;;;;5.07;3.22;;;;;;;;;;5107071;27;20028;-72
2022/06/16 04:59:22;;;;;;;5.22;2.83;;;;;;;;;;5108975;28;20031;-71
2022/06/16 05:01:48;;;;;;;5.65;3.22;;;;;;;;;;5102137;27;20500;-74
2022/06/16 05:04:14;;;;;;;5.95;3.70;;;;;;;;;;5104529;28;20031;-74
2022/06/16 05:06:39;;;;;;;5.57;3.33;;;;;;;;;;5104695;28;20376;-74
2022/06/16 05:09:04;;;;;;;6.07;3.33;;;;;;;;;;5108560;28;20411;-75
2022/06/16 05:11:30;;;;;;;7.20;2.80;;;;;;;;;;5106111;27;20024;-73
2022/06/16 05:13:55;;;;;;;5.07;3.47;;;;;;;;;;5105083;27;20031;-74
2022/06/16 05:16:21;;;;;;;6.57;3.40;;;;;;;;;;5108700;27;20032;-74
2022/06/16 05:18:46;;;;;;;5.75;3.00;;;;;;;;;;5106504;28;20110;-74
2022/06/16 05:21:14;;;;;;;4.10;2.72;;;;;;;;;;5104912;27;20020;-74
2022/06/16 05:23:40;;;;;;;4.95;3.20;;;;;;;;;;5110717;28;20027;-74
2022/06/16 05:26:07;;;;;;;6.20;3.28;;;;;;;;;;5103635;27;20076;-74
2022/06/16 05:28:35;;;;;;;4.35;2.80;;;;;;;;;;5096473;28;20032;-75
2022/06/16 05:31:01;;;;;;;4.28;3.10;;;;;;;;;;5099415;27;20557;-72
2022/06/16 05:33:26;;;;;;;4.22;2.70;;;;;;;;;;5109588;28;20129;-73
2022/06/16 05:36:04;;;;;;;4.35;2.60;;;;;;;;;;5107276;27;20094;-72
2022/06/16 05:38:29;;;;;;;5.10;2.55;;;;;;;;;;5105752;28;20097;-75
2022/06/16 05:41:07;;;;;;;4.50;2.70;;;;;;;;;;5105250;28;20031;-73
2022/06/16 05:43:34;;;;;;;5.32;2.88;;;;;;;;;;5107522;28;20031;-74
2022/06/16 05:46:00;;;;;;;5.45;2.90;;;;;;;;;;5102948;27;20020;-75
2022/06/16 05:48:26;;;;;;;3.85;2.50;;;;;;;;;;5103787;27;21460;-73
2022/06/16 05:50:51;;;;;;;4.90;2.80;;;;;;;;;;5103271;27;20027;-74
2022/06/16 05:53:17;;;;;;;4.88;2.53;;;;;;;;;;5102059;28;20437;-73
2022/06/16 05:55:43;;;;;;;3.95;2.60;;;;;;;;;;5099198;27;20047;-75
2022/06/16 05:58:08;;;;;;;5.13;2.85;;;;;;;;;;5091790;27;20501;-75
2022/06/16 06:00:34;;;;;;;3.85;2.58;;;;;;;;;;5098144;28;20439;-74
2022/06/16 06:02:59;;;;;;;4.40;2.63;;;;;;;;;;5102962;28;20039;-75
2022/06/16 06:05:26;;;;;;;5.65;2.25;;;;;;;;;;5094055;28;20055;-75
2022/06/16 06:16:26;;;;;;;5.28;2.50;;;;;;;;;;5102447;28;20066;-73
2022/06/16 06:18:56;;;;;;;4.78;2.47;;;;;;;;;;5104848;28;20471;-74
2022/06/16 06:24:08;;;;;;;3.60;2.42;;;;;;;;;;5100331;28;20046;-72
2022/06/16 06:26:34;;;;;;;4.05;2.03;;;;;;;;;;5093021;28;20020;-75
2022/06/16 06:28:59;;;;;;;4.80;2.30;;;;;;;;;;5097005;27;20032;-73
2022/06/16 06:31:25;;;;;;;3.35;2.00;;;;;;;;;;5100516;27;20467;-75
2022/06/16 06:33:50;;;;;;;5.55;2.30;;;;;;;;;;5098581;27;20039;-74
2022/06/16 06:36:16;;;;;;;5.45;2.20;;;;;;;;;;5096911;28;20072;-73
2022/06/16 06:38:41;;;;;;;5.10;2.28;;;;;;;;;;5097732;28;20031;-73
2022/06/16 06:41:07;;;;;;;4.28;2.17;;;;;;;;;;5104391;27;20023;-73
2022/06/16 06:43:32;;;;;;;4.88;2.15;;;;;;;;;;5104072;27;20044;-73
2022/06/16 06:45:58;;;;;;;3.90;2.17;;;;;;;;;;5099065;28;20015;-73
2022/06/16 06:48:23;;;;;;;5.07;2.08;;;;;;;;;;5105364;27;20514;-73
2022/06/16 06:50:48;;;;;;;3.92;1.90;;;;;;;;;;5107083;27;20027;-73
2022/06/16 06:53:14;;;;;;;2.72;1.80;;;;;;;;;;5105890;28;20031;-73
2022/06/16 06:55:44;;;;;;;4.35;1.80;;;;;;;;;;5106439;28;20027;-73
2022/06/16 06:58:17;;;;;;;2.40;1.50;;;;;;;;;;5105634;28;20028;-73
2022/06/16 07:00:42;;;;;;;4.18;1.55;;;;;;;;;;5107546;28;20024;-73
2022/06/16 07:03:08;;;;;;;2.83;1.40;;;;;;;;;;5111275;28;20030;-73
2022/06/16 07:05:34;;;;;;;4.00;2.03;;;;;;;;;;5102375;27;20011;-73
2022/06/16 07:07:59;;;;;;;4.35;1.92;;;;;;;;;;5104305;28;20023;-72
2022/06/16 07:10:25;;;;;;;3.60;1.75;;;;;;;;;;5103383;27;20035;-73
2022/06/16 07:12:51;;;;;;;4.07;1.88;;;;;;;;;;5109554;28;20028;-73
2022/06/16 07:15:17;;;;;;;2.42;1.60;;;;;;;;;;5107589;27;20024;-73
2022/06/16 07:17:42;;;;;;;3.17;1.80;;;;;;;;;;5109631;28;20034;-73
2022/06/16 07:20:09;;;;;;;4.40;1.80;;;;;;;;;;5101824;27;20040;-73
2022/06/16 07:22:34;;;;;;;4.57;1.90;;;;;;;;;;5104140;28;20136;-73
2022/06/16 07:25:00;;;;;;;2.47;1.30;;;;;;;;;;5101980;28;20491;-73
2022/06/16 07:27:26;;;;;;;3.58;1.52;;;;;;;;;;5105294;28;20084;-72
2022/06/16 07:29:52;;;;;;;3.75;1.80;;;;;;;;;;5108473;28;20019;-73
2022/06/16 07:32:19;;;;;;;4.32;1.40;;;;;;;;;;5100930;27;20494;-72
2022/06/16 07:34:44;;;;;;;4.05;1.70;;;;;;;;;;5105982;28;20031;-74
2022/06/16 07:37:10;;;;;;;3.50;1.50;;;;;;;;;;5105384;27;20047;-73
2022/06/16 07:39:35;;;;;;;3.60;1.67;;;;;;;;;;5108387;28;20051;-73
2022/06/16 07:42:01;;;;;;;3.08;1.60;;;;;;;;;;5096261;28;20035;-73
2022/06/16 07:44:26;;;;;;;3.30;1.40;;;;;;;;;;5104187;28;20035;-73
2022/06/16 07:46:52;;;;;;;3.28;1.70;;;;;;;;;;5107460;28;20051;-73
2022/06/16 07:49:22;;;;;;;3.10;1.20;;;;;;;;;;5105376;27;20023;-74
2022/06/16 07:51:49;;;;;;;2.80;1.60;;;;;;;;;;5102611;28;20024;-73
2022/06/16 07:54:15;;;;;;;2.38;1.35;;;;;;;;;;5107674;27;20032;-73
2022/06/16 07:56:41;;;;;;;4.20;1.58;;;;;;;;;;5110047;28;20034;-73
2022/06/16 07:59:06;;;;;;;5.13;1.80;;;;;;;;;;5102956;28;20024;-73
2022/06/16 08:01:31;;;;;;;2.85;1.48;;;;;;;;;;5104890;28;20034;-72
2022/06/16 08:03:58;;;;;;;5.28;1.85;;;;;;;;;;5101075;28;20030;-72
2022/06/16 08:06:26;;;;;;;2.28;1.60;;;;;;;;;;5104199;28;20482;-72
2022/06/16 08:08:53;;;;;;;4.47;1.60;;;;;;;;;;5100051;28;20046;-74
2022/06/16 08:14:04;;;;;;;4.65;1.90;;;;;;;;;;5104838;28;20111;-73
2022/06/16 08:16:30;;;;;;;3.83;1.63;;;;;;;;;;5106358;28;20482;-73
2022/06/16 08:18:56;;;;;;;3.83;1.60;;;;;;;;;;5097395;28;20032;-73
2022/06/16 08:21:22;;;;;;;2.67;1.50;;;;;;;;;;5100690;27;20028;-73
2022/06/16 08:23:47;;;;;;;3.80;1.40;;;;;;;;;;5103976;28;20047;-73
2022/06/16 08:26:13;;;;;;;3.22;1.40;;;;;;;;;;5101174;28;20019;-73
2022/06/16 08:28:39;;;;;;;2.88;1.60;;;;;;;;;;5101179;28;20031;-73
2022/06/16 08:31:06;;;;;;;3.40;1.52;;;;;;;;;;5117605;27;20038;-73
2022/06/16 08:33:31;;;;;;;2.45;1.33;;;;;;;;;;5107795;28;20033;-73
2022/06/16 08:35:57;;;;;;;3.92;1.50;;;;;;;;;;5106013;28;20044;-73
2022/06/16 08:38:23;;;;;;;4.32;1.45;;;;;;;;;;5107993;28;20071;-74
2022/06/16 08:41:11;;;;;;;3.08;1.55;;;;;;;;;;5105225;28;20481;-74
2022/06/16 08:43:42;;;;;;;3.20;1.60;;;;;;;;;;5101526;28;20043;-73
2022/06/16 08:46:08;;;;;;;3.20;1.50;;;;;;;;;;5107114;28;20026;-72
2022/06/16 08:48:49;;;;;;;2.78;1.42;;;;;;;;;;5103467;28;20476;-73
2022/06/16 08:51:39;;;;;;;2.83;1.60;;;;;;;;;;5104241;28;20089;-73
2022/06/16 08:54:19;;;;;;;3.33;1.45;;;;;;;;;;5105525;28;20054;-73
2022/06/16 08:57:01;;;;;;;2.67;1.60;;;;;;;;;;5104098;28;20024;-74
2022/06/16 08:59:53;;;;;;;3.38;1.30;;;;;;;;;;5100660;28;20063;-74
2022/06/16 09:02:47;;;;;;;4.00;1.60;;;;;;;;;;5102890;28;20491;-73
2022/06/16 09:05:31;;;;;;;4.53;1.30;;;;;;;;;;5104797;28;20078;-73
2022/06/16 09:08:22;;;;;;;3.50;1.50;;;;;;;;;;5107863;28;20051;-73
2022/06/16 09:10:55;;;;;;;3.20;1.40;;;;;;;;;;5106518;28;20065;-73
2022/06/16 09:13:40;;;;;;;2.25;1.50;;;;;;;;;;5102751;28;20035;-73
2022/06/16 09:16:37;;;;;;;2.55;1.33;;;;;;;;;;5105501;28;20492;-73
2022/06/16 09:19:30;;;;;;;2.50;1.40;;;;;;;;;;5106032;28;20024;-73
2022/06/16 09:22:06;;;;;;;;;;;;;;;;;;5105986;28;20023;-73
2022/06/16 09:24:43;;;;;;;3.83;1.88;;;;;;;;;;5102889;28;19919;-73
2022/06/16 09:27:20;;;;;;;3.47;1.58;;;;;;;;;;5111570;28;20084;-73
2022/06/16 09:29:57;;;;;;;2.42;1.70;;;;;;;;;;5102904;28;20046;-73
2022/06/16 09:32:41;;;;;;;3.25;1.40;;;;;;;;;;5097779;28;20032;-73
2022/06/16 09:35:12;;;;;;;3.10;1.38;;;;;;;;;;5105530;28;20463;-73
2022/06/16 09:38:14;;;;;;;2.83;1.50;;;;;;;;;;5108945;28;20194;-74
2022/06/16 09:40:54;;;;;;;3.55;1.55;;;;;;;;;;5105446;28;20452;-73
2022/06/16 09:43:31;;;;;;;2.85;1.50;;;;;;;;;;5102023;28;20031;-73
2022/06/16 09:46:02;;;;;;;2.58;1.50;;;;;;;;;;5106220;28;20471;-73
2022/06/16 09:48:37;;;;;;;2.78;1.60;;;;;;;;;;5105339;28;20024;-73
2022/06/16 09:51:18;;;;;;;3.70;1.80;;;;;;;;;;5103782;28;20031;-73
2022/06/16 09:53:53;;;;;;;5.15;1.63;;;;;;;;;;5105442;28;20547;-73
2022/06/16 09:56:32;;;;;;;2.65;1.42;;;;;;;;;;5105139;27;20047;-73
2022/06/16 09:59:07;;;;;;;4.07;1.45;;;;;;;;;;5104207;28;20077;-73
2022/06/16 10:01:40;;;;;;;3.15;1.55;;;;;;;;;;5109759;28;20146;-74
2022/06/16 10:04:07;;;;;;;3.05;1.70;;;;;;;;;;5107806;27;20024;-73
2022/06/16 10:06:42;;;;;;;4.28;1.92;;;;;;;;;;5102862;28;20020;-74
2022/06/16 10:09:26;;;;;;;3.00;1.45;;;;;;;;;;5112869;28;20027;-73
2022/06/16 10:11:59;;;;;;;3.33;1.85;;;;;;;;;;5105681;28;20114;-73
2022/06/16 10:14:48;;;;;;;4.10;1.50;;;;;;;;;;5109192;28;20479;-74
2022/06/16 10:17:17;;;;;;;3.83;1.45;;;;;;;;;;5106818;28;20070;-73
2022/06/16 10:19:44;;;;;;;4.32;1.40;;;;;;;;;;5106239;28;20476;-73
2022/06/16 10:22:13;;;;;;;3.55;1.60;;;;;;;;;;5106487;28;20486;-73
2022/06/16 10:24:49;;;;;;;3.30;1.38;;;;;;;;;;5106170;28;20035;-73
2022/06/16 10:27:18;;;;;;;3.03;1.23;;;;;;;;;;5110461;27;20156;-73
2022/06/16 10:29:52;;;;;;;2.47;1.60;;;;;;;;;;5108337;28;20024;-73
2022/06/16 10:32:19;;;;;;;2.95;1.45;;;;;;;;;;5103051;28;20036;-74
2022/06/16 10:34:51;;;;;;;3.13;1.70;;;;;;;;;;5106884;28;20494;-73
2022/06/16 10:37:21;;;;;;;4.03;1.55;;;;;;;;;;5106178;28;20039;-73
2022/06/16 10:40:00;;;;;;;2.90;1.65;;;;;;;;;;5107916;28;20126;-74
2022/06/16 10:42:32;;;;;;;3.03;1.55;;;;;;;;;;5107831;28;20039;-73
2022/06/16 10:45:05;;;;;;;;;;;;;;;;;;5108208;28;20056;-74
2022/06/16 10:47:39;;;;;;;4.80;1.55;;;;;;;;;;5105452;28;19919;-73
2022/06/16 10:50:07;;;;;;;5.55;1.70;;;;;;;;;;5099731;28;20046;-74
2022/06/16 10:52:38;;;;;;;2.42;1.40;;;;;;;;;;5105972;27;20118;-73
2022/06/16 10:55:25;;;;;;;3.75;1.80;;;;;;;;;;5107910;28;20384;-73
2022/06/16 10:58:04;;;;;;;3.03;1.65;;;;;;;;;;5110891;27;20024;-73
2022/06/16 11:00:32;;;;;;;4.15;1.85;;;;;;;;;;5108569;28;20048;-73
2022/06/16 11:03:04;;;;;;;3.63;1.80;;;;;;;;;;5103771;28;20050;-74
2022/06/16 11:05:33;;;;;;;3.50;1.77;;;;;;;;;;5106380;28;20046;-73
2022/06/16 11:08:08;;;;;;;6.82;1.70;;;;;;;;;;5107242;27;20480;-73
2022/06/16 11:10:37;;;;;;;4.72;1.90;;;;;;;;;;5106406;28;20035;-74
2022/06/16 11:13:03;;;;;;;5.68;1.80;;;;;;;;;;5097888;28;20073;-73
2022/06/16 11:15:34;;;;;;;4.75;1.67;;;;;;;;;;5109479;28;20024;-73
2022/06/16 11:18:03;;;;;;;2.90;1.70;;;;;;;;;;5096055;28;20024;-73
2022/06/16 11:20:40;;;;;;;4.82;2.10;;;;;;;;;;5109822;28;20028;-74
2022/06/16 11:23:27;;;;;;;2.53;1.60;;;;;;;;;;5107042;28;20031;-73
2022/06/16 11:26:15;;;;;;;5.70;1.80;;;;;;;;;;5108909;28;20028;-74
2022/06/16 11:28:47;;;;;;;4.18;1.73;;;;;;;;;;5110086;28;20051;-73
2022/06/16 11:31:18;;;;;;;3.17;2.03;;;;;;;;;;5106106;28;20063;-74
2022/06/16 11:36:44;;;;;;;3.13;1.67;;;;;;;;;;5100564;27;20096;-73
2022/06/16 11:39:27;;;;;;;3.88;1.88;;;;;;;;;;5095973;28;20042;-74
2022/06/16 11:41:55;;;;;;;2.88;1.67;;;;;;;;;;5104040;28;20038;-73
2022/06/16 11:44:39;;;;;;;3.80;1.88;;;;;;;;;;5110856;28;20023;-73
2022/06/16 11:47:31;;;;;;;4.35;1.80;;;;;;;;;;5102694;28;20023;-73
2022/06/16 11:50:24;;;;;;;4.75;1.90;;;;;;;;;;5107007;28;20532;-75
2022/06/16 11:53:01;;;;;;;3.90;1.80;;;;;;;;;;5108330;28;20024;-73
2022/06/16 11:55:41;;;;;;;4.03;1.98;;;;;;;;;;5110313;28;20116;-73
2022/06/16 11:58:30;;;;;;;4.57;1.80;;;;;;;;;;5105809;28;20040;-73
2022/06/16 12:01:04;;;;;;;3.13;1.60;;;;;;;;;;5106525;28;20034;-73
2022/06/16 12:03:44;;;;;;;2.47;1.60;;;;;;;;;;5103144;28;20391;-73
2022/06/16 12:06:10;;;;;;;4.72;1.73;;;;;;;;;;5105940;28;21428;-73
2022/06/16 12:08:47;;;;;;;2.83;1.67;;;;;;;;;;5110073;28;20027;-74
2022/06/16 12:11:37;;;;;;;3.83;2.30;;;;;;;;;;5102360;28;20078;-73
2022/06/16 12:14:24;;;;;;;3.20;2.13;;;;;;;;;;5097118;28;20035;-73
2022/06/16 12:17:01;;;;;;;3.22;1.67;;;;;;;;;;5104719;28;20066;-74
2022/06/16 12:20:08;;;;;;;3.92;1.60;;;;;;;;;;5106573;28;20034;-73
2022/06/16 12:22:49;;;;;;;6.80;1.80;;;;;;;;;;5056342;28;20414;-73
2022/06/16 12:25:31;;;;;;;4.13;1.98;;;;;;;;;;5107040;28;20028;-73
2022/06/16 12:28:09;;;;;;;3.17;1.80;;;;;;;;;;5107715;28;20026;-73
2022/06/16 12:30:48;;;;;;;3.60;1.60;;;;;;;;;;5111324;28;20050;-74
2022/06/16 12:33:33;;;;;;;3.30;1.63;;;;;;;;;;5102994;28;20054;-73
2022/06/16 12:36:15;;;;;;;3.45;1.75;;;;;;;;;;5105465;28;20499;-74
2022/06/16 12:38:51;;;;;;;2.63;1.50;;;;;;;;;;5105977;28;20110;-74
2022/06/16 12:41:28;;;;;;;2.65;1.70;;;;;;;;;;5105079;28;20039;-74
2022/06/16 12:44:17;;;;;;;4.13;1.90;;;;;;;;;;5095879;28;20024;-73
2022/06/16 12:46:46;;;;;;;4.85;1.90;;;;;;;;;;5103024;28;20027;-73
2022/06/16 12:49:22;;;;;;;3.20;1.50;;;;;;;;;;5106974;28;20016;-74
2022/06/16 12:52:10;;;;;;;3.63;1.77;;;;;;;;;;5104720;28;20177;-74
2022/06/16 12:54:51;;;;;;;3.60;1.50;;;;;;;;;;5104752;28;20104;-73
2022/06/16 12:57:22;;;;;;;6.18;2.00;;;;;;;;;;5107135;28;20032;-73
2022/06/16 13:00:17;;;;;;;5.63;1.83;;;;;;;;;;5106135;28;20026;-73
2022/06/16 13:02:47;;;;;;;5.22;2.53;;;;;;;;;;5101852;28;20038;-74
2022/06/16 13:05:13;;;;;;;3.80;1.85;;;;;;;;;;5102926;28;21817;-73
2022/06/16 13:07:51;;;;;;;2.65;1.80;;;;;;;;;;5102653;27;20103;-73
2022/06/16 13:10:16;;;;;;;2.50;1.70;;;;;;;;;;5108457;27;20033;-75
2022/06/16 13:12:49;;;;;;;4.45;2.05;;;;;;;;;;5107808;27;20111;-75
2022/06/16 13:15:33;;;;;;;3.85;2.00;;;;;;;;;;5101590;27;20028;-73
2022/06/16 13:18:06;;;;;;;3.58;2.00;;;;;;;;;;5122999;27;20070;-74
2022/06/16 13:20:33;;;;;;;3.22;1.70;;;;;;;;;;5110372;28;20045;-74
2022/06/16 13:23:27;;;;;;;2.55;1.60;;;;;;;;;;5108196;27;20032;-74
2022/06/16 13:26:21;;;;;;;3.53;1.90;;;;;;;;;;5110738;28;20498;-73
2022/06/16 13:29:05;;;;;;;4.15;1.70;;;;;;;;;;5104138;27;20051;-74
2022/06/16 13:31:42;;;;;;;3.35;1.58;;;;;;;;;;5107802;28;20023;-74
2022/06/16 13:34:08;;;;;;;3.95;1.80;;;;;;;;;;5108426;28;20036;-73
2022/06/16 13:36:33;;;;;;;5.65;2.25;;;;;;;;;;5111005;28;20040;-73
2022/06/16 13:39:00;;;;;;;3.03;1.70;;;;;;;;;;5107570;28;20534;-73
2022/06/16 13:41:43;;;;;;;3.00;1.80;;;;;;;;;;5113999;28;20115;-74
2022/06/16 13:44:11;;;;;;;3.88;1.77;;;;;;;;;;5106653;28;20027;-74
2022/06/16 13:47:14;;;;;;;3.47;1.63;;;;;;;;;;5100628;27;20090;-74
2022/06/16 13:49:45;;;;;;;3.53;1.90;;;;;;;;;;5105399;28;20392;-74
2022/06/16 13:52:15;;;;;;;3.28;1.90;;;;;;;;;;5107366;28;20042;-73
2022/06/16 13:54:42;;;;;;;3.42;1.98;;;;;;;;;;5102783;27;20087;-73
2022/06/16 13:57:25;;;;;;;3.30;2.03;;;;;;;;;;5108706;28;20034;-73
2022/06/16 13:59:57;;;;;;;3.15;1.80;;;;;;;;;;5104390;27;20030;-74
2022/06/16 14:02:24;;;;;;;2.92;1.77;;;;;;;;;;5100865;27;20077;-74
2022/06/16 14:05:00;;;;;;;4.57;2.05;;;;;;;;;;5110123;28;20055;-73
2022/06/16 14:07:30;;;;;;;2.38;1.73;;;;;;;;;;5108205;28;20024;-74
2022/06/16 14:10:21;;;;;;;3.20;1.70;;;;;;;;;;5111034;27;20024;-73
2022/06/16 14:13:05;;;;;;;3.10;1.63;;;;;;;;;;5106100;28;20059;-73
2022/06/16 14:15:52;;;;;;;4.72;1.90;;;;;;;;;;5107198;28;20055;-74
2022/06/16 14:18:48;;;;;;;3.45;1.85;;;;;;;;;;5107762;28;20027;-74
2022/06/16 14:21:15;;;;;;;2.92;1.77;;;;;;;;;;5104282;28;20126;-73
2022/06/16 14:23:46;;;;;;;4.13;1.63;;;;;;;;;;5111148;28;20019;-73
2022/06/16 14:26:22;;;;;;;3.75;1.80;;;;;;;;;;5112776;28;20020;-73
2022/06/16 14:28:49;;;;;;;3.50;1.80;;;;;;;;;;5105929;28;20088;-74
2022/06/16 14:31:20;;;;;;;2.85;1.88;;;;;;;;;;5106785;28;20110;-74
2022/06/16 14:34:15;;;;;;;3.88;1.90;;;;;;;;;;5102590;27;20230;-73
2022/06/16 14:36:47;;;;;;;3.30;1.90;;;;;;;;;;5080983;28;20036;-74
2022/06/16 14:39:26;;;;;;;4.32;1.85;;;;;;;;;;5108351;28;20038;-73
2022/06/16 14:42:02;;;;;;;3.05;1.70;;;;;;;;;;5100339;27;20072;-73
2022/06/16 14:44:34;;;;;;;3.60;1.90;;;;;;;;;;5102207;28;20020;-74
2022/06/16 14:47:10;;;;;;;;;;;;;;;;;;5099442;28;20015;-74
2022/06/16 14:50:08;;;;;;;3.95;1.80;;;;;;;;;;5099220;28;19976;-73
2022/06/16 14:52:52;;;;;;;3.17;1.92;;;;;;;;;;5083010;27;20074;-74
2022/06/16 14:55:21;;;;;;;8.73;2.63;;;;;;;;;;5103867;27;20035;-74
2022/06/16 14:57:50;;;;;;;3.65;2.28;;;;;;;;;;5101772;28;20688;-73
2022/06/16 15:00:27;;;;;;;4.07;2.28;;;;;;;;;;5103874;28;20040;-73
2022/06/16 15:03:06;;;;;;;2.60;1.77;;;;;;;;;;5105472;28;20024;-74
2022/06/16 15:05:35;;;;;;;3.70;1.98;;;;;;;;;;5098763;28;20487;-74
2022/06/16 15:08:01;;;;;;;2.92;1.90;;;;;;;;;;5103274;28;20047;-74
2022/06/16 15:10:29;;;;;;;3.95;1.70;;;;;;;;;;5104180;28;20032;-73
2022/06/16 15:13:00;;;;;;;3.72;1.90;;;;;;;;;;5105351;28;20031;-74
2022/06/16 15:15:26;;;;;;;2.78;1.88;;;;;;;;;;5096950;28;20027;-74
2022/06/16 15:18:13;;;;;;;3.05;1.90;;;;;;;;;;5098221;28;20177;-74
2022/06/16 15:21:00;;;;;;;3.45;1.80;;;;;;;;;;5100626;27;20453;-74
2022/06/16 15:23:31;;;;;;;4.22;1.80;;;;;;;;;;5096012;28;20556;-74
2022/06/16 15:25:58;;;;;;;3.08;2.00;;;;;;;;;;5104560;28;20027;-74
2022/06/16 15:28:33;;;;;;;2.50;1.75;;;;;;;;;;5104400;27;20058;-73
2022/06/16 15:31:18;;;;;;;3.65;1.95;;;;;;;;;;5096235;27;20089;-73
2022/06/16 15:36:43;;;;;;;3.25;2.13;;;;;;;;;;5099895;27;20046;-74
2022/06/16 15:39:19;;;;;;;4.63;2.83;;;;;;;;;;5102506;28;20043;-74
2022/06/16 15:41:47;;;;;;;3.65;1.85;;;;;;;;;;5103041;28;20066;-74
2022/06/16 15:44:27;;;;;;;5.03;2.10;;;;;;;;;;5099970;28;20023;-75